Time;durP1;ratioP1;P1;durP2;ratioP2;P2;SDS_P1;SDS_P2;PMS_P1;PMS_P2;Temp;Humidity;BMP_temperature;BMP_pressure;BME280_temperature;BME280_humidity;BME280_pressure;Samples;Min_cycle;Max_cycle;Signal;HPM_P1;HPM_P2
2022/09/27 00:02:13;;;;;;;;;;;21.50;86.40;;;;;;5097902;28;19908;-46
2022/09/27 00:04:39;;;;;;;;;;;21.50;86.40;;;;;;5095201;28;19924;-47
2022/09/27 00:07:04;;;;;;;;;;;21.50;86.30;;;;;;5095235;28;19935;-45
2022/09/27 00:09:30;;;;;;;;;;;21.50;86.30;;;;;;5094965;28;19908;-46
2022/09/27 00:11:55;;;;;;;;;;;21.50;86.40;;;;;;5094885;28;20270;-48
2022/09/27 00:14:21;;;;;;;;;;;21.50;86.20;;;;;;5095207;28;19915;-46
2022/09/27 00:16:47;;;;;;;;;;;21.50;86.30;;;;;;5095488;28;19980;-46
2022/09/27 00:19:14;;;;;;;;;;;21.50;86.10;;;;;;5077349;28;19953;-47
2022/09/27 00:21:40;;;;;;;;;;;21.40;86.00;;;;;;5095002;28;19920;-48
2022/09/27 00:24:06;;;;;;;;;;;21.50;86.00;;;;;;5094985;28;19977;-45
2022/09/27 00:26:31;;;;;;;;;;;21.40;85.80;;;;;;5094866;28;19912;-47
2022/09/27 00:28:56;;;;;;;;;;;21.40;86.10;;;;;;5094978;28;19939;-51
2022/09/27 00:31:24;;;;;;;;;;;21.40;86.40;;;;;;5094616;28;19912;-50
2022/09/27 00:33:50;;;;;;;;;;;21.40;86.60;;;;;;5094839;28;19915;-48
2022/09/27 00:36:16;;;;;;;;;;;21.40;86.40;;;;;;5094785;28;19955;-50
2022/09/27 00:38:42;;;;;;;;;;;21.40;86.60;;;;;;5094778;28;19976;-45
2022/09/27 00:41:12;;;;;;;;;;;21.40;86.80;;;;;;5094678;28;20434;-47
2022/09/27 00:43:54;;;;;;;;;;;21.40;86.90;;;;;;5094381;28;19937;-48
2022/09/27 00:46:28;;;;;;;;;;;21.40;86.70;;;;;;5094678;28;19908;-47
2022/09/27 00:49:20;;;;;;;;;;;21.40;86.70;;;;;;5094665;28;19912;-46
2022/09/27 00:51:48;;;;;;;;;;;21.40;86.70;;;;;;5090944;28;19908;-46
2022/09/27 00:54:16;;;;;;;;;;;21.50;86.60;;;;;;5094494;28;20354;-47
2022/09/27 00:56:42;;;;;;;;;;;21.50;86.60;;;;;;5094401;28;19908;-48
2022/09/27 00:59:10;;;;;;;;;;;21.50;86.60;;;;;;5094143;28;19908;-47
2022/09/27 01:01:36;;;;;;;;;;;21.50;86.50;;;;;;5106857;28;19939;-47
2022/09/27 01:04:12;;;;;;;;;;;21.50;86.60;;;;;;5114604;28;20366;-46
2022/09/27 01:06:37;;;;;;;;;;;21.50;86.40;;;;;;5114270;28;19908;-48
2022/09/27 01:09:06;;;;;;;;;;;21.50;86.30;;;;;;5114681;28;19912;-48
2022/09/27 01:11:50;;;;;;;;;;;21.50;86.20;;;;;;5114647;28;19953;-47
2022/09/27 01:14:21;;;;;;;;;;;21.40;86.10;;;;;;5114660;28;19907;-46
2022/09/27 01:17:00;;;;;;;;;;;21.50;86.20;;;;;;5114243;28;19998;-46
2022/09/27 01:19:43;;;;;;;;;;;21.50;86.20;;;;;;5114300;28;19914;-49
2022/09/27 01:22:24;;;;;;;;;;;21.50;86.30;;;;;;5114501;28;20278;-50
2022/09/27 01:25:03;;;;;;;;;;;21.40;86.40;;;;;;5114499;28;19908;-47
2022/09/27 01:27:31;;;;;;;;;;;21.40;86.40;;;;;;5118641;28;19914;-45
2022/09/27 01:29:57;;;;;;;;;;;21.40;86.50;;;;;;5121292;28;19914;-46
2022/09/27 01:32:31;;;;;;;;;;;21.40;86.50;;;;;;5121167;28;19998;-48
2022/09/27 01:35:00;;;;;;;;;;;21.40;86.50;;;;;;5121212;28;19907;-48
2022/09/27 01:37:58;;;;;;;;;;;21.40;86.50;;;;;;5120929;28;19907;-49
2022/09/27 01:40:29;;;;;;;;;;;21.40;86.40;;;;;;5054078;28;20398;-47
2022/09/27 01:43:07;;;;;;;;;;;21.40;86.80;;;;;;5098634;28;20000;-47
2022/09/27 01:45:37;;;;;;;;;;;21.40;86.50;;;;;;5097712;28;19916;-47
2022/09/27 01:48:06;;;;;;;;;;;21.40;86.60;;;;;;5096626;28;19908;-46
2022/09/27 01:50:36;;;;;;;;;;;21.40;86.60;;;;;;5099674;28;19934;-48
2022/09/27 01:53:04;;;;;;;;;;;21.40;86.60;;;;;;5099205;28;19909;-48
2022/09/27 01:55:31;;;;;;;;;;;21.40;86.50;;;;;;5081429;28;19916;-45
2022/09/27 01:57:58;;;;;;;;;;;21.40;86.30;;;;;;5093335;28;19966;-47
2022/09/27 02:00:24;;;;;;;;;;;21.50;86.30;;;;;;5082409;28;19965;-47
2022/09/27 02:02:49;;;;;;;;;;;21.40;83.70;;;;;;5099838;28;19912;-46
2022/09/27 02:05:16;;;;;;;;;;;21.40;85.60;;;;;;5094718;28;19928;-48
2022/09/27 02:07:50;;;;;;;;;;;21.40;85.90;;;;;;5095167;28;19908;-48
2022/09/27 02:10:22;;;;;;;;;;;21.50;86.00;;;;;;5099354;28;20308;-50
2022/09/27 02:12:52;;;;;;;;;;;21.50;85.90;;;;;;5092750;28;19978;-50
2022/09/27 02:15:18;;;;;;;;;;;21.50;85.70;;;;;;5098881;28;19912;-47
2022/09/27 02:17:48;;;;;;;;;;;21.50;85.90;;;;;;5098154;28;20200;-53
2022/09/27 02:20:13;;;;;;;;;;;21.50;86.20;;;;;;5098816;28;19942;-48
2022/09/27 02:22:58;;;;;;;;;;;21.50;86.00;;;;;;5098863;28;20363;-49
2022/09/27 02:25:25;;;;;;;;;;;21.40;85.60;;;;;;5094942;28;19956;-47
2022/09/27 02:27:53;;;;;;;;;;;21.40;86.00;;;;;;5096274;28;20260;-48
2022/09/27 02:30:19;;;;;;;;;;;21.40;86.20;;;;;;5096281;28;19918;-47
2022/09/27 02:32:44;;;;;;;;;;;21.40;86.10;;;;;;5080634;28;19908;-51
2022/09/27 02:35:16;;;;;;;;;;;21.40;86.40;;;;;;5098452;28;20373;-49
2022/09/27 02:37:41;;;;;;;;;;;21.40;86.40;;;;;;5098099;28;19909;-46
2022/09/27 02:40:07;;;;;;;;;;;21.40;86.40;;;;;;5094766;28;19909;-47
2022/09/27 02:42:33;;;;;;;;;;;21.40;86.50;;;;;;5091092;28;19983;-47
2022/09/27 02:44:59;;;;;;;;;;;21.30;86.30;;;;;;5095125;28;19920;-46
2022/09/27 02:47:42;;;;;;;;;;;21.40;86.40;;;;;;5092990;28;20452;-45
2022/09/27 02:50:27;;;;;;;;;;;21.30;86.50;;;;;;5076947;28;19981;-46
2022/09/27 02:52:52;;;;;;;;;;;21.30;86.10;;;;;;5095156;28;19908;-47
2022/09/27 02:55:21;;;;;;;;;;;21.40;86.20;;;;;;5095193;28;20015;-46
2022/09/27 02:58:09;;;;;;;;;;;21.40;85.40;;;;;;5095172;28;19934;-46
2022/09/27 03:00:47;;;;;;;;;;;21.40;86.30;;;;;;5092569;28;20298;-46
2022/09/27 03:03:16;;;;;;;;;;;21.40;86.30;;;;;;5090742;28;19916;-45
2022/09/27 03:05:43;;;;;;;;;;;21.40;85.60;;;;;;5076934;28;19928;-49
2022/09/27 03:08:09;;;;;;;;;;;21.50;86.00;;;;;;5094795;28;20358;-50
2022/09/27 03:10:35;;;;;;;;;;;21.50;85.80;;;;;;5092384;28;19912;-46
2022/09/27 03:13:00;;;;;;;;;;;21.50;86.10;;;;;;5093549;28;19954;-46
2022/09/27 03:15:26;;;;;;;;;;;21.40;85.60;;;;;;5094790;28;20002;-46
2022/09/27 03:17:51;;;;;;;;;;;21.50;86.10;;;;;;5095711;28;19966;-46
2022/09/27 03:20:17;;;;;;;;;;;21.50;85.90;;;;;;5094425;28;19932;-53
2022/09/27 03:22:42;;;;;;;;;;;21.50;85.90;;;;;;5094819;28;19920;-47
2022/09/27 03:25:08;;;;;;;;;;;21.50;86.20;;;;;;5094351;28;19943;-45
2022/09/27 03:27:33;;;;;;;;;;;21.50;86.00;;;;;;5094316;28;20365;-47
2022/09/27 03:29:59;;;;;;;;;;;21.50;86.10;;;;;;5093930;28;19999;-51
2022/09/27 03:32:25;;;;;;;;;;;21.40;86.30;;;;;;5093789;28;19912;-46
2022/09/27 03:34:52;;;;;;;;;;;21.40;86.40;;;;;;5093798;28;20244;-47
2022/09/27 03:37:18;;;;;;;;;;;21.40;86.30;;;;;;5093698;28;20215;-49
2022/09/27 03:39:44;;;;;;;;;;;21.40;86.50;;;;;;5093500;28;20294;-51
2022/09/27 03:42:09;;;;;;;;;;;21.40;86.60;;;;;;5094341;28;19912;-46
2022/09/27 03:44:34;;;;;;;;;;;21.40;87.10;;;;;;5095748;28;19999;-47
2022/09/27 03:47:00;;;;;;;;;;;21.30;86.50;;;;;;5095359;28;19912;-49
2022/09/27 03:49:25;;;;;;;;;;;21.30;86.50;;;;;;5095326;28;20355;-47
2022/09/27 03:51:51;;;;;;;;;;;21.30;86.50;;;;;;5095587;28;19909;-46
2022/09/27 03:54:16;;;;;;;;;;;21.30;86.50;;;;;;5077541;28;19951;-46
2022/09/27 03:56:42;;;;;;;;;;;21.30;86.40;;;;;;5095473;28;20347;-47
2022/09/27 03:59:07;;;;;;;;;;;21.30;86.40;;;;;;5095568;28;19934;-48
2022/09/27 04:01:35;;;;;;;;;;;21.30;86.50;;;;;;5107139;28;20357;-47
2022/09/27 04:04:00;;;;;;;;;;;21.30;86.30;;;;;;5115445;28;19962;-49
2022/09/27 04:06:26;;;;;;;;;;;21.40;86.40;;;;;;5115471;28;19937;-47
2022/09/27 04:08:52;;;;;;;;;;;21.40;86.30;;;;;;5115444;28;20354;-49
2022/09/27 04:11:18;;;;;;;;;;;21.50;86.20;;;;;;5115321;28;19912;-48
2022/09/27 04:13:44;;;;;;;;;;;21.50;86.00;;;;;;5115519;28;19964;-48
2022/09/27 04:16:09;;;;;;;;;;;21.60;85.90;;;;;;5115800;28;20385;-46
2022/09/27 04:18:35;;;;;;;;;;;21.60;85.70;;;;;;5115226;28;19931;-47
2022/09/27 04:21:01;;;;;;;;;;;21.60;85.90;;;;;;5115022;28;20431;-45
2022/09/27 04:23:27;;;;;;;;;;;21.60;85.90;;;;;;5115063;28;19908;-47
2022/09/27 04:25:52;;;;;;;;;;;21.60;85.90;;;;;;5115439;28;19916;-47
2022/09/27 04:28:18;;;;;;;;;;;21.50;86.00;;;;;;5114927;28;19953;-47
2022/09/27 04:30:44;;;;;;;;;;;21.50;86.10;;;;;;5114760;28;19912;-47
2022/09/27 04:33:10;;;;;;;;;;;21.50;86.20;;;;;;5115026;28;19959;-47
2022/09/27 04:38:22;;;;;;;;;;;21.50;86.00;;;;;;5114943;28;19915;-46
2022/09/27 04:40:49;;;;;;;;;;;21.50;86.10;;;;;;5114924;28;19942;-47
2022/09/27 04:43:15;;;;;;;;;;;21.50;86.00;;;;;;5114756;28;20385;-45
2022/09/27 04:45:42;;;;;;;;;;;21.50;86.00;;;;;;5114837;28;19908;-47
2022/09/27 04:48:07;;;;;;;;;;;21.50;86.00;;;;;;5114659;28;19912;-48
2022/09/27 04:50:33;;;;;;;;;;;21.50;86.10;;;;;;5114581;28;19914;-46
2022/09/27 04:52:58;;;;;;;;;;;21.40;86.00;;;;;;5096537;28;20249;-46
2022/09/27 04:55:23;;;;;;;;;;;21.40;85.80;;;;;;5096447;28;20385;-46
2022/09/27 04:57:49;;;;;;;;;;;21.40;85.70;;;;;;5114487;28;19908;-47
2022/09/27 05:00:15;;;;;;;;;;;21.40;85.60;;;;;;5113256;28;20311;-47
2022/09/27 05:02:42;;;;;;;;;;;21.40;85.50;;;;;;5093868;28;19912;-46
2022/09/27 05:05:08;;;;;;;;;;;21.40;85.10;;;;;;5094333;28;19970;-46
2022/09/27 05:07:34;;;;;;;;;;;21.30;85.30;;;;;;5093739;28;19919;-48
2022/09/27 05:10:00;;;;;;;;;;;21.30;85.10;;;;;;5093882;28;19908;-51
2022/09/27 05:12:25;;;;;;;;;;;21.40;85.60;;;;;;5094097;28;20375;-50
2022/09/27 05:14:51;;;;;;;;;;;21.40;85.80;;;;;;5094099;28;19958;-48
2022/09/27 05:17:17;;;;;;;;;;;21.40;85.10;;;;;;5093586;28;20260;-46
2022/09/27 05:19:43;;;;;;;;;;;21.40;85.60;;;;;;5093723;28;20011;-47
2022/09/27 05:22:08;;;;;;;;;;;21.50;85.80;;;;;;5091840;28;20023;-47
2022/09/27 05:24:34;;;;;;;;;;;21.50;85.70;;;;;;5089697;28;19908;-48
2022/09/27 05:27:00;;;;;;;;;;;21.60;85.40;;;;;;5075522;28;19908;-47
2022/09/27 05:29:26;;;;;;;;;;;21.60;85.20;;;;;;5094928;28;19915;-50
2022/09/27 05:31:52;;;;;;;;;;;21.60;85.20;;;;;;5085513;28;19961;-47
2022/09/27 05:34:19;;;;;;;;;;;21.60;85.30;;;;;;5081376;28;19915;-45
2022/09/27 05:36:47;;;;;;;;;;;21.60;85.40;;;;;;5106642;28;20403;-47
2022/09/27 05:39:15;;;;;;;;;;;21.60;85.00;;;;;;5107362;28;19919;-48
2022/09/27 05:41:41;;;;;;;;;;;21.60;85.40;;;;;;5103794;28;19990;-46
2022/09/27 05:44:06;;;;;;;;;;;21.50;81.80;;;;;;5082032;28;19956;-45
2022/09/27 05:46:32;;;;;;;;;;;21.50;83.80;;;;;;5093281;28;19909;-50
2022/09/27 05:48:57;;;;;;;;;;;21.50;83.30;;;;;;5104792;28;19919;-45
2022/09/27 05:51:23;;;;;;;;;;;21.40;83.40;;;;;;5103792;28;19915;-46
2022/09/27 05:53:48;;;;;;;;;;;21.40;83.50;;;;;;5100866;28;20384;-48
2022/09/27 05:56:14;;;;;;;;;;;21.40;83.50;;;;;;5093180;28;20001;-45
2022/09/27 05:58:39;;;;;;;;;;;21.30;83.80;;;;;;5093052;28;19908;-48
2022/09/27 06:01:06;;;;;;;;;;;21.30;84.00;;;;;;5105783;28;19927;-47
2022/09/27 06:03:31;;;;;;;;;;;21.40;85.00;;;;;;5113530;28;20391;-48
2022/09/27 06:06:00;;;;;;;;;;;21.40;85.10;;;;;;5106247;28;19912;-46
2022/09/27 06:08:25;;;;;;;;;;;21.40;85.10;;;;;;5098807;28;19949;-47
2022/09/27 06:10:59;;;;;;;;;;;21.40;85.10;;;;;;5094443;28;19955;-48
2022/09/27 06:13:25;;;;;;;;;;;21.40;85.20;;;;;;5106043;28;20003;-51
2022/09/27 06:15:51;;;;;;;;;;;21.40;85.30;;;;;;5112805;28;19919;-46
2022/09/27 06:18:17;;;;;;;;;;;21.40;85.30;;;;;;5112385;28;20305;-46
2022/09/27 06:20:42;;;;;;;;;;;21.40;85.30;;;;;;5117007;28;19922;-49
2022/09/27 06:23:12;;;;;;;;;;;21.40;85.30;;;;;;5111291;28;19999;-49
2022/09/27 06:25:38;;;;;;;;;;;21.40;85.40;;;;;;5111979;28;19912;-50
2022/09/27 06:28:04;;;;;;;;;;;21.40;85.40;;;;;;5113973;28;20384;-46
2022/09/27 06:30:30;;;;;;;;;;;21.50;85.50;;;;;;5113227;28;20006;-45
2022/09/27 06:32:59;;;;;;;;;;;21.50;85.50;;;;;;5116854;28;19994;-46
2022/09/27 06:35:25;;;;;;;;;;;21.50;85.50;;;;;;5113530;28;19944;-48
2022/09/27 06:37:51;;;;;;;;;;;21.50;85.40;;;;;;5113524;28;20281;-47
2022/09/27 06:40:17;;;;;;;;;;;21.50;85.30;;;;;;5098502;28;19908;-49
2022/09/27 06:42:42;;;;;;;;;;;21.60;85.30;;;;;;5110644;28;20009;-45
2022/09/27 06:45:08;;;;;;;;;;;21.60;85.30;;;;;;5116681;28;19915;-48
2022/09/27 06:47:34;;;;;;;;;;;21.60;85.20;;;;;;5114394;28;20385;-46
2022/09/27 06:50:02;;;;;;;;;;;21.60;85.20;;;;;;5116368;28;19907;-46
2022/09/27 06:52:28;;;;;;;;;;;21.60;85.20;;;;;;5110253;28;19951;-48
2022/09/27 06:54:53;;;;;;;;;;;21.60;85.70;;;;;;5112857;28;19955;-46
2022/09/27 07:00:22;;;;;;;;;;;21.60;85.20;;;;;;5107185;28;19919;-46
2022/09/27 07:00:22;;;;;;;;;;;21.60;85.20;;;;;;5075631;28;19913;-45
2022/09/27 07:02:48;;;;;;;;;;;21.60;85.30;;;;;;5111438;28;19912;-46
2022/09/27 07:05:14;;;;;;;;;;;21.60;85.30;;;;;;5107853;28;19931;-46
2022/09/27 07:07:39;;;;;;;;;;;21.60;85.90;;;;;;5116258;28;20335;-49
2022/09/27 07:10:05;;;;;;;;;;;21.60;85.40;;;;;;5089069;28;19941;-47
2022/09/27 07:12:31;;;;;;;;;;;21.60;85.50;;;;;;5104430;28;19954;-45
2022/09/27 07:14:57;;;;;;;;;;;21.60;85.60;;;;;;5112683;28;20286;-45
2022/09/27 07:17:22;;;;;;;;;;;21.50;85.60;;;;;;5111257;28;19912;-47
2022/09/27 07:19:48;;;;;;;;;;;21.50;85.60;;;;;;5111480;28;19919;-48
2022/09/27 07:22:13;;;;;;;;;;;21.50;85.60;;;;;;5111709;28;19924;-50
2022/09/27 07:24:39;;;;;;;;;;;21.50;85.60;;;;;;5106390;28;19945;-44
2022/09/27 07:27:05;;;;;;;;;;;21.50;85.60;;;;;;5105596;28;19912;-44
2022/09/27 07:29:30;;;;;;;;;;;21.50;85.10;;;;;;5116397;28;19961;-49
2022/09/27 07:31:56;;;;;;;;;;;21.50;84.60;;;;;;5101593;28;20344;-48
2022/09/27 07:34:21;;;;;;;;;;;21.50;85.40;;;;;;5086222;28;19913;-46
2022/09/27 07:36:47;;;;;;;;;;;21.50;85.50;;;;;;5106805;28;19912;-48
2022/09/27 07:39:12;;;;;;;;;;;21.50;85.40;;;;;;5115170;28;19908;-45
2022/09/27 07:41:39;;;;;;;;;;;21.60;85.50;;;;;;5113549;28;20023;-45
2022/09/27 07:44:06;;;;;;;;;;;21.60;85.30;;;;;;5103358;28;19922;-48
2022/09/27 07:46:32;;;;;;;;;;;21.60;85.30;;;;;;5105939;28;19911;-46
2022/09/27 07:48:58;;;;;;;;;;;21.60;85.30;;;;;;5111225;28;20006;-47
2022/09/27 07:51:24;;;;;;;;;;;21.60;85.20;;;;;;5108310;28;20370;-45
2022/09/27 07:53:49;;;;;;;;;;;21.60;85.20;;;;;;5110165;28;20065;-49
2022/09/27 07:56:15;;;;;;;;;;;21.60;85.20;;;;;;5094520;28;19908;-45
2022/09/27 07:58:41;;;;;;;;;;;21.70;85.30;;;;;;5089068;28;19951;-48
2022/09/27 08:01:07;;;;;;;;;;;21.70;85.30;;;;;;5109005;28;19966;-47
2022/09/27 08:03:33;;;;;;;;;;;21.60;85.30;;;;;;5105996;28;20331;-46
2022/09/27 08:06:03;;;;;;;;;;;21.60;85.30;;;;;;5108644;28;20374;-46
2022/09/27 08:08:28;;;;;;;;;;;21.60;85.40;;;;;;5111035;28;19912;-47
2022/09/27 08:10:54;;;;;;;;;;;21.60;85.40;;;;;;5110539;28;20366;-47
2022/09/27 08:13:20;;;;;;;;;;;21.60;85.50;;;;;;5104890;28;20420;-46
2022/09/27 08:15:45;;;;;;;;;;;21.60;85.50;;;;;;5108257;28;19911;-48
2022/09/27 08:18:11;;;;;;;;;;;21.60;85.50;;;;;;5090965;28;20049;-49
2022/09/27 08:20:37;;;;;;;;;;;21.60;85.60;;;;;;5109387;28;19920;-46
2022/09/27 08:23:03;;;;;;;;;;;21.60;85.60;;;;;;5104826;28;19912;-47
2022/09/27 08:25:29;;;;;;;;;;;21.60;85.60;;;;;;5106152;28;20274;-48
2022/09/27 08:27:55;;;;;;;;;;;21.60;85.60;;;;;;5111614;28;19912;-47
2022/09/27 08:30:21;;;;;;;;;;;21.60;85.70;;;;;;5106211;28;19998;-50
2022/09/27 08:32:46;;;;;;;;;;;21.60;85.70;;;;;;5102288;28;19912;-56
2022/09/27 08:35:14;;;;;;;;;;;21.60;85.70;;;;;;5114929;28;19907;-54
2022/09/27 08:37:39;;;;;;;;;;;21.50;85.90;;;;;;5089100;28;19923;-58
2022/09/27 08:40:06;;;;;;;;;;;21.50;85.70;;;;;;5110918;28;19911;-51
2022/09/27 08:42:35;;;;;;;;;;;21.50;85.90;;;;;;5112850;28;19978;-53
2022/09/27 08:45:04;;;;;;;;;;;21.50;85.90;;;;;;5110099;28;19912;-54
2022/09/27 08:47:34;;;;;;;;;;;21.50;85.90;;;;;;5110678;28;19915;-51
2022/09/27 08:50:18;;;;;;;;;;;21.50;85.80;;;;;;5105137;28;19912;-52
2022/09/27 08:52:49;;;;;;;;;;;21.50;85.70;;;;;;5108524;28;20081;-54
2022/09/27 08:55:18;;;;;;;;;;;21.50;85.70;;;;;;5107712;28;19965;-55
2022/09/27 08:57:49;;;;;;;;;;;21.50;85.70;;;;;;5097669;28;19919;-51
2022/09/27 09:00:14;;;;;;;;;;;21.50;85.70;;;;;;5093553;28;20006;-54
2022/09/27 09:02:40;;;;;;;;;;;21.50;85.70;;;;;;5110574;28;20010;-54
2022/09/27 09:05:09;;;;;;;;;;;21.50;85.80;;;;;;5110462;28;20368;-55
2022/09/27 09:07:50;;;;;;;;;;;21.50;85.80;;;;;;5110500;28;19912;-55
2022/09/27 09:12:45;;;;;;;;;;;21.50;85.80;;;;;;5114132;28;19915;-56
2022/09/27 09:13:04;;;;;;;;;;;21.50;85.80;;;;;;5103533;28;20244;-52
2022/09/27 09:15:53;;;;;;;;;;;21.50;85.60;;;;;;5073674;28;19909;-53
2022/09/27 09:18:27;;;;;;;;;;;21.50;85.70;;;;;;5092006;28;19918;-53
2022/09/27 09:21:07;;;;;;;;;;;21.50;85.70;;;;;;5102766;28;19928;-51
2022/09/27 09:23:45;;;;;;;;;;;21.60;85.70;;;;;;5108200;28;19912;-53
2022/09/27 09:26:21;;;;;;;;;;;21.60;85.70;;;;;;5106131;28;19952;-47
2022/09/27 09:28:53;;;;;;;;;;;21.60;85.70;;;;;;5108532;28;19966;-46
2022/09/27 09:31:24;;;;;;;;;;;21.60;85.60;;;;;;5111631;28;19907;-47
2022/09/27 09:34:10;;;;;;;;;;;21.60;85.70;;;;;;5105063;28;19911;-48
2022/09/27 09:36:56;;;;;;;;;;;21.60;85.60;;;;;;5070353;28;19912;-48
2022/09/27 09:39:34;;;;;;;;;;;21.60;85.70;;;;;;5086352;28;20014;-48
2022/09/27 09:42:03;;;;;;;;;;;21.60;85.60;;;;;;5090779;28;19969;-49
2022/09/27 09:44:32;;;;;;;;;;;21.60;85.70;;;;;;5094346;28;19912;-52
2022/09/27 09:47:00;;;;;;;;;;;21.60;85.70;;;;;;5093467;28;19908;-48
2022/09/27 09:49:38;;;;;;;;;;;21.60;85.70;;;;;;5097593;28;19908;-54
2022/09/27 09:52:11;;;;;;;;;;;21.60;85.70;;;;;;5109684;28;20011;-47
2022/09/27 09:54:39;;;;;;;;;;;21.60;85.70;;;;;;5109003;28;19912;-46
2022/09/27 09:57:05;;;;;;;;;;;21.60;85.70;;;;;;5098819;28;19950;-47
2022/09/27 09:59:34;;;;;;;;;;;21.60;86.20;;;;;;5103877;28;20324;-49
2022/09/27 10:02:11;;;;;;;;;;;21.60;85.60;;;;;;5102269;28;19935;-48
2022/09/27 10:04:36;;;;;;;;;;;21.60;85.60;;;;;;5118100;28;19920;-47
2022/09/27 10:07:02;;;;;;;;;;;21.60;85.60;;;;;;5114450;28;19915;-49
2022/09/27 10:09:27;;;;;;;;;;;21.60;85.70;;;;;;5114252;28;20270;-48
2022/09/27 10:11:53;;;;;;;;;;;21.60;85.70;;;;;;5117736;28;19912;-49
2022/09/27 10:14:19;;;;;;;;;;;21.60;85.60;;;;;;5109360;28;19912;-46
2022/09/27 10:16:47;;;;;;;;;;;21.60;85.70;;;;;;5113593;28;20002;-52
2022/09/27 10:19:18;;;;;;;;;;;21.60;85.70;;;;;;5090611;28;19912;-49
2022/09/27 10:21:45;;;;;;;;;;;21.60;85.70;;;;;;5076755;28;19978;-50
2022/09/27 10:24:12;;;;;;;;;;;21.60;85.70;;;;;;5109192;28;19927;-47
2022/09/27 10:26:38;;;;;;;;;;;21.60;85.70;;;;;;5117166;28;19908;-52
2022/09/27 10:29:20;;;;;;;;;;;21.60;85.70;;;;;;5086623;28;20259;-47
2022/09/27 10:31:47;;;;;;;;;;;21.60;85.70;;;;;;5110870;28;19911;-47
2022/09/27 10:34:21;;;;;;;;;;;21.60;85.70;;;;;;5112558;28;19912;-47
2022/09/27 10:37:00;;;;;;;;;;;21.60;85.70;;;;;;5105409;28;19947;-48
2022/09/27 10:39:27;;;;;;;;;;;21.60;85.50;;;;;;5083692;28;19994;-45
2022/09/27 10:41:52;;;;;;;;;;;21.60;85.50;;;;;;5095102;28;19938;-47
2022/09/27 10:44:31;;;;;;;;;;;21.60;85.40;;;;;;5109704;28;19907;-48
2022/09/27 10:47:06;;;;;;;;;;;21.60;85.40;;;;;;5112464;28;20019;-47
2022/09/27 10:49:34;;;;;;;;;;;21.60;85.40;;;;;;5111108;28;19918;-44
2022/09/27 10:52:07;;;;;;;;;;;21.60;85.40;;;;;;5114530;28;19911;-45
2022/09/27 10:54:38;;;;;;;;;;;21.60;85.30;;;;;;5110375;28;19911;-43
2022/09/27 10:57:06;;;;;;;;;;;21.60;85.30;;;;;;5112012;28;19919;-44
2022/09/27 10:59:37;;;;;;;;;;;21.50;85.20;;;;;;5069742;28;20370;-44
2022/09/27 11:02:04;;;;;;;;;;;21.60;85.20;;;;;;5104699;28;19916;-47
2022/09/27 11:04:31;;;;;;;;;;;21.50;85.20;;;;;;5086923;28;20007;-45
2022/09/27 11:07:19;;;;;;;;;;;21.50;85.10;;;;;;5091773;28;19927;-45
2022/09/27 11:09:45;;;;;;;;;;;21.50;85.20;;;;;;5090708;28;19991;-45
2022/09/27 11:12:14;;;;;;;;;;;21.50;85.20;;;;;;5109641;28;20007;-44
2022/09/27 11:14:40;;;;;;;;;;;21.50;85.20;;;;;;5104383;28;19912;-49
2022/09/27 11:17:06;;;;;;;;;;;21.50;85.20;;;;;;5109268;28;19912;-45
2022/09/27 11:19:37;;;;;;;;;;;21.40;85.10;;;;;;5113609;28;19908;-46
2022/09/27 11:22:12;;;;;;;;;;;21.50;85.00;;;;;;5097730;28;19920;-46
2022/09/27 11:24:47;;;;;;;;;;;21.50;85.10;;;;;;5106948;28;19912;-49
2022/09/27 11:27:22;;;;;;;;;;;21.50;85.10;;;;;;5115717;28;20296;-48
2022/09/27 11:29:56;;;;;;;;;;;21.50;85.00;;;;;;5080286;28;20274;-48
2022/09/27 11:32:43;;;;;;;;;;;21.50;85.00;;;;;;5076804;28;19958;-47
2022/09/27 11:35:12;;;;;;;;;;;21.50;85.10;;;;;;5095482;28;19999;-45
2022/09/27 11:37:37;;;;;;;;;;;21.50;85.00;;;;;;5095341;28;19908;-45
2022/09/27 11:40:11;;;;;;;;;;;21.50;85.00;;;;;;5102484;28;19919;-47
2022/09/27 11:42:46;;;;;;;;;;;21.50;85.10;;;;;;5116270;28;19963;-46
2022/09/27 11:45:36;;;;;;;;;;;21.50;85.10;;;;;;5083735;28;19923;-48
2022/09/27 11:48:02;;;;;;;;;;;21.50;85.10;;;;;;5102128;28;19920;-48
2022/09/27 11:50:43;;;;;;;;;;;21.50;85.10;;;;;;5095312;28;20030;-50
2022/09/27 11:53:28;;;;;;;;;;;21.60;85.30;;;;;;5095330;28;20385;-47
2022/09/27 11:56:06;;;;;;;;;;;21.60;85.30;;;;;;5069075;28;19985;-49
2022/09/27 11:58:47;;;;;;;;;;;21.60;85.30;;;;;;5108411;28;19912;-46
2022/09/27 12:01:49;;;;;;;;;;;21.50;85.60;;;;;;5107032;28;20030;-47
2022/09/27 12:04:21;;;;;;;;;;;21.50;85.20;;;;;;5032621;28;19980;-49
2022/09/27 12:07:04;;;;;;;;;;;21.50;85.40;;;;;;5101257;28;20041;-52
2022/09/27 12:09:32;;;;;;;;;;;21.50;85.50;;;;;;5095257;28;19969;-48
2022/09/27 12:12:01;;;;;;;;;;;21.50;85.50;;;;;;5106366;28;19911;-47
2022/09/27 12:14:27;;;;;;;;;;;21.50;85.50;;;;;;5115172;28;20226;-47
2022/09/27 12:16:54;;;;;;;;;;;21.50;85.50;;;;;;5099041;28;19920;-46
2022/09/27 12:19:23;;;;;;;;;;;21.50;84.90;;;;;;5102612;28;19955;-49
2022/09/27 12:21:48;;;;;;;;;;;21.50;85.60;;;;;;5098523;28;19919;-47
2022/09/27 12:24:18;;;;;;;;;;;21.50;85.60;;;;;;5101415;28;20278;-51
2022/09/27 12:26:44;;;;;;;;;;;21.50;85.60;;;;;;5107595;28;19922;-47
2022/09/27 12:29:12;;;;;;;;;;;21.50;85.50;;;;;;5079794;28;19912;-49
2022/09/27 12:31:51;;;;;;;;;;;21.50;85.40;;;;;;5091900;28;20007;-51
2022/09/27 12:34:17;;;;;;;;;;;21.50;85.40;;;;;;5103959;28;19912;-53
2022/09/27 12:36:45;;;;;;;;;;;21.60;85.40;;;;;;5094390;28;19927;-52
2022/09/27 12:39:20;;;;;;;;;;;21.50;84.10;;;;;;5100592;28;19937;-48
2022/09/27 12:42:05;;;;;;;;;;;21.60;85.30;;;;;;5095962;28;19920;-46
2022/09/27 12:44:36;;;;;;;;;;;21.60;85.30;;;;;;5108082;28;20286;-50
2022/09/27 12:47:18;;;;;;;;;;;21.60;85.20;;;;;;5099628;28;19912;-48
2022/09/27 12:50:03;;;;;;;;;;;21.60;85.30;;;;;;5101442;28;19920;-49
2022/09/27 12:52:30;;;;;;;;;;;21.60;85.40;;;;;;5096192;28;19912;-47
2022/09/27 12:54:59;;;;;;;;;;;21.60;85.30;;;;;;5108210;28;19918;-47
2022/09/27 12:57:24;;;;;;;;;;;21.60;85.40;;;;;;5100661;28;20373;-48
2022/09/27 12:59:50;;;;;;;;;;;21.60;85.30;;;;;;5093812;28;19934;-47
2022/09/27 13:02:19;;;;;;;;;;;21.60;85.40;;;;;;5102635;28;19966;-46
2022/09/27 13:04:52;;;;;;;;;;;21.60;85.50;;;;;;5103843;28;19945;-46
2022/09/27 13:07:38;;;;;;;;;;;21.60;85.40;;;;;;5094671;28;19908;-48
2022/09/27 13:10:06;;;;;;;;;;;21.60;85.50;;;;;;5093470;28;19916;-49
2022/09/27 13:12:33;;;;;;;;;;;21.60;85.70;;;;;;5108332;28;20357;-49
2022/09/27 13:15:03;;;;;;;;;;;21.60;85.70;;;;;;5111712;28;20020;-51
2022/09/27 13:17:33;;;;;;;;;;;21.60;85.70;;;;;;5075679;28;20341;-49
2022/09/27 13:20:19;;;;;;;;;;;21.60;85.70;;;;;;5103287;28;20323;-47
2022/09/27 13:22:44;;;;;;;;;;;21.50;85.70;;;;;;5081541;28;19963;-51
2022/09/27 13:25:42;;;;;;;;;;;21.50;85.80;;;;;;5107789;28;20329;-50
2022/09/27 13:28:27;;;;;;;;;;;21.60;85.70;;;;;;5042100;28;20325;-47
2022/09/27 13:30:52;;;;;;;;;;;21.50;85.80;;;;;;5106959;28;19912;-47
2022/09/27 13:33:18;;;;;;;;;;;21.50;85.70;;;;;;5113781;28;19911;-49
2022/09/27 13:36:02;;;;;;;;;;;21.50;85.80;;;;;;5105294;28;20327;-47
2022/09/27 13:38:27;;;;;;;;;;;21.50;85.80;;;;;;5095601;28;19908;-47
2022/09/27 13:40:55;;;;;;;;;;;21.60;85.70;;;;;;5110370;28;19923;-49
2022/09/27 13:43:26;;;;;;;;;;;21.60;85.70;;;;;;5098630;28;20003;-52
2022/09/27 13:46:00;;;;;;;;;;;21.60;85.50;;;;;;5093560;28;20343;-49
2022/09/27 13:48:25;;;;;;;;;;;21.60;85.40;;;;;;5093297;28;19915;-51
2022/09/27 13:50:55;;;;;;;;;;;21.70;85.40;;;;;;5075687;28;20267;-51
2022/09/27 13:53:27;;;;;;;;;;;21.70;85.30;;;;;;5093131;28;19944;-51
2022/09/27 13:55:53;;;;;;;;;;;21.70;85.10;;;;;;5087981;28;19912;-50
2022/09/27 13:58:21;;;;;;;;;;;21.70;85.00;;;;;;5106459;28;20378;-47
2022/09/27 14:00:49;;;;;;;;;;;21.80;85.10;;;;;;5099020;28;19916;-50
2022/09/27 14:03:22;;;;;;;;;;;21.80;85.00;;;;;;5113440;28;20327;-50
2022/09/27 14:05:50;;;;;;;;;;;21.80;85.00;;;;;;5073555;28;19999;-50
2022/09/27 14:08:18;;;;;;;;;;;21.70;84.90;;;;;;5107810;28;19919;-46
2022/09/27 14:10:44;;;;;;;;;;;21.70;85.00;;;;;;5103254;28;19915;-47
2022/09/27 14:13:13;;;;;;;;;;;21.70;85.00;;;;;;5113475;28;20255;-48
2022/09/27 14:15:38;;;;;;;;;;;21.70;84.90;;;;;;5097118;28;19912;-46
2022/09/27 14:18:08;;;;;;;;;;;21.70;84.90;;;;;;5105001;28;20003;-51
2022/09/27 14:20:34;;;;;;;;;;;21.70;84.80;;;;;;5071607;28;19916;-46
2022/09/27 14:23:00;;;;;;;;;;;21.70;85.00;;;;;;5094321;28;19915;-48
2022/09/27 14:25:26;;;;;;;;;;;21.60;84.80;;;;;;5108193;28;20300;-48
2022/09/27 14:27:51;;;;;;;;;;;21.70;85.00;;;;;;5099298;28;19912;-47
2022/09/27 14:30:18;;;;;;;;;;;21.70;85.00;;;;;;5093104;28;20351;-42
2022/09/27 14:32:50;;;;;;;;;;;21.60;84.90;;;;;;5092867;28;19912;-46